Time;durP1;ratioP1;P1;durP2;ratioP2;P2;SDS_P1;SDS_P2;PMS_P1;PMS_P2;Temp;Humidity;BMP_temperature;BMP_pressure;BME280_temperature;BME280_humidity;BME280_pressure;Samples;Min_cycle;Max_cycle;Signal;HPM_P1;HPM_P2
2022/01/15 00:00:20;;;;;;;845.87;691.60;;;2.90;99.90;;;;;;5008461;28;20975;-82
2022/01/15 00:02:49;;;;;;;837.17;706.50;;;2.80;99.90;;;;;;5009622;28;20454;-82
2022/01/15 00:05:23;;;;;;;866.87;713.63;;;2.90;99.90;;;;;;5009543;28;20453;-82
2022/01/15 00:07:54;;;;;;;859.30;702.00;;;2.90;99.90;;;;;;5008718;28;20482;-83
2022/01/15 00:10:26;;;;;;;842.63;691.20;;;2.90;99.90;;;;;;5009239;28;20462;-82
2022/01/15 00:12:58;;;;;;;863.23;688.70;;;2.80;99.90;;;;;;5008041;28;20457;-82
2022/01/15 00:15:31;;;;;;;882.47;708.80;;;2.80;99.90;;;;;;5009256;28;20447;-82
2022/01/15 00:18:04;;;;;;;895.90;710.10;;;2.70;99.90;;;;;;5009578;28;20485;-82
2022/01/15 00:20:45;;;;;;;866.70;707.87;;;2.70;99.90;;;;;;5009114;28;20477;-82
2022/01/15 00:23:14;;;;;;;889.67;710.67;;;2.70;99.90;;;;;;5008468;28;20486;-82
2022/01/15 00:25:44;;;;;;;967.33;718.60;;;2.60;99.90;;;;;;5008583;28;20494;-81
2022/01/15 00:28:26;;;;;;;882.93;716.90;;;2.70;99.90;;;;;;5007401;28;20505;-82
2022/01/15 00:30:55;;;;;;;910.80;728.33;;;2.60;99.90;;;;;;5007807;28;20453;-82
2022/01/15 00:33:30;;;;;;;928.00;755.93;;;2.60;99.90;;;;;;5008459;28;20469;-82
2022/01/15 00:35:59;;;;;;;940.73;746.17;;;2.60;99.90;;;;;;5009071;28;20506;-82
2022/01/15 00:38:36;;;;;;;937.60;742.50;;;2.60;99.90;;;;;;5007220;28;20969;-82
2022/01/15 00:41:06;;;;;;;984.23;761.67;;;2.60;99.90;;;;;;5005822;28;20533;-82
2022/01/15 00:43:34;;;;;;;955.77;769.60;;;2.50;99.90;;;;;;5008607;28;20442;-82
2022/01/15 00:46:07;;;;;;;980.70;776.10;;;2.50;99.90;;;;;;5008928;28;20457;-81
2022/01/15 00:48:52;;;;;;;922.23;773.70;;;2.50;99.90;;;;;;5007978;28;20508;-82
2022/01/15 00:51:24;;;;;;;958.57;791.77;;;2.40;99.90;;;;;;5006828;28;20473;-81
2022/01/15 00:54:04;;;;;;;950.67;803.43;;;2.50;99.90;;;;;;5006848;28;20458;-81
2022/01/15 00:56:57;;;;;;;966.57;804.00;;;2.40;99.90;;;;;;5007539;28;20484;-82
2022/01/15 00:59:24;;;;;;;957.00;790.67;;;2.40;99.90;;;;;;4995223;28;20505;-82
2022/01/15 01:01:51;;;;;;;954.47;801.63;;;2.40;99.90;;;;;;5006453;28;20485;-82
2022/01/15 01:04:32;;;;;;;924.33;797.47;;;2.40;99.90;;;;;;5006676;28;20541;-82
2022/01/15 01:07:05;;;;;;;956.67;801.03;;;2.30;99.90;;;;;;5005505;28;20446;-82
2022/01/15 01:10:00;;;;;;;950.53;805.70;;;2.20;99.90;;;;;;5004443;28;20501;-81
2022/01/15 01:12:57;;;;;;;945.03;813.30;;;2.20;99.90;;;;;;5007349;28;20466;-81
2022/01/15 01:21:34;;;;;;;972.93;815.33;;;2.10;99.90;;;;;;5006670;28;20470;-81
2022/01/15 01:24:02;;;;;;;947.33;817.07;;;2.00;99.90;;;;;;5006565;28;20450;-82
2022/01/15 01:26:57;;;;;;;953.47;837.40;;;2.10;99.90;;;;;;5006771;28;20883;-81
2022/01/15 01:29:36;;;;;;;956.97;823.50;;;2.00;99.90;;;;;;5006446;28;20486;-83
2022/01/15 01:32:26;;;;;;;936.27;833.30;;;2.10;99.90;;;;;;5006540;28;20450;-82
2022/01/15 01:34:53;;;;;;;976.47;827.53;;;2.00;99.90;;;;;;5007602;28;20543;-84
2022/01/15 01:37:35;;;;;;;992.63;826.60;;;2.00;99.90;;;;;;5008087;28;20518;-83
2022/01/15 01:40:18;;;;;;;946.27;824.93;;;2.00;99.90;;;;;;5005080;28;20468;-82
2022/01/15 01:43:06;;;;;;;968.70;821.70;;;2.00;99.90;;;;;;5006357;28;20461;-82
2022/01/15 01:45:37;;;;;;;1000.80;831.67;;;2.00;99.90;;;;;;5006554;28;20478;-82
2022/01/15 01:48:04;;;;;;;968.57;838.27;;;2.00;99.90;;;;;;5006465;28;20478;-81
2022/01/15 01:50:34;;;;;;;977.90;831.40;;;2.00;99.90;;;;;;5005962;28;20461;-82
2022/01/15 01:53:21;;;;;;;986.43;835.70;;;2.00;99.90;;;;;;5006177;28;20493;-82
2022/01/15 01:55:59;;;;;;;974.13;843.73;;;2.00;99.90;;;;;;5007341;28;20521;-82
2022/01/15 01:58:28;;;;;;;983.07;842.93;;;2.00;99.90;;;;;;5007390;28;20470;-82
2022/01/15 02:00:59;;;;;;;999.10;847.30;;;2.10;99.90;;;;;;5007227;28;20450;-82
2022/01/15 02:03:36;;;;;;;1032.70;854.07;;;2.10;99.90;;;;;;5007402;28;20481;-82
2022/01/15 02:06:13;;;;;;;1024.10;847.40;;;2.10;99.90;;;;;;5007464;28;20473;-82
2022/01/15 02:08:57;;;;;;;988.47;852.47;;;2.00;99.90;;;;;;5007138;28;20478;-82
2022/01/15 02:11:27;;;;;;;1018.90;854.90;;;2.00;99.90;;;;;;5004407;28;20473;-81
2022/01/15 02:13:54;;;;;;;985.20;846.40;;;1.90;99.90;;;;;;5007387;28;20982;-83
2022/01/15 02:16:26;;;;;;;1002.17;839.60;;;2.00;99.90;;;;;;5008402;28;20464;-81
2022/01/15 02:19:06;;;;;;;981.37;845.87;;;2.00;99.90;;;;;;5007110;28;20824;-82
2022/01/15 02:24:23;;;;;;;975.67;848.27;;;2.00;99.90;;;;;;5008203;28;20444;-82
2022/01/15 02:27:04;;;;;;;958.57;853.60;;;2.00;99.90;;;;;;5007286;28;20457;-82
2022/01/15 02:29:35;;;;;;;1002.90;861.83;;;2.00;99.90;;;;;;5006653;28;20481;-83
2022/01/15 02:32:11;;;;;;;965.60;841.20;;;2.00;99.90;;;;;;5007536;28;20494;-82
2022/01/15 02:34:57;;;;;;;999.73;844.17;;;2.00;99.90;;;;;;5008044;28;20462;-82
2022/01/15 02:37:30;;;;;;;1014.10;861.17;;;2.00;99.90;;;;;;5007281;28;20512;-81
2022/01/15 02:40:01;;;;;;;1020.67;859.63;;;2.00;99.90;;;;;;5008288;28;20458;-81
2022/01/15 02:42:38;;;;;;;1042.87;856.70;;;2.10;99.90;;;;;;5007899;28;20446;-82
2022/01/15 02:45:09;;;;;;;1069.07;868.57;;;2.10;99.90;;;;;;5007886;28;20462;-83
2022/01/15 02:50:26;;;;;;;1136.87;863.50;;;2.00;99.90;;;;;;5007477;28;20473;-82
2022/01/15 02:53:01;;;;;;;1096.23;879.47;;;2.10;99.90;;;;;;5007807;28;20988;-81
2022/01/15 02:55:34;;;;;;;1101.97;878.50;;;2.10;99.90;;;;;;5011216;28;20476;-81
2022/01/15 02:58:13;;;;;;;1101.20;870.03;;;2.20;99.90;;;;;;5011957;28;20470;-81
2022/01/15 03:00:49;;;;;;;1078.20;870.93;;;2.00;99.90;;;;;;5012068;28;20450;-83
2022/01/15 03:03:16;;;;;;;1186.53;875.57;;;2.20;99.90;;;;;;5012543;28;20438;-81
2022/01/15 03:05:55;;;;;;;1132.20;876.67;;;2.10;99.90;;;;;;5011466;28;20987;-81
2022/01/15 03:08:44;;;;;;;1135.47;874.17;;;2.20;99.90;;;;;;5010789;28;20497;-81
2022/01/15 03:11:23;;;;;;;1142.20;878.07;;;2.20;99.90;;;;;;5008935;28;20458;-82
2022/01/15 03:14:00;;;;;;;1094.87;889.87;;;2.10;99.90;;;;;;5010456;28;20529;-83
2022/01/15 03:16:32;;;;;;;1159.83;890.70;;;2.10;99.90;;;;;;5010219;28;20457;-82
2022/01/15 03:19:08;;;;;;;1159.23;886.77;;;2.30;99.90;;;;;;5011132;28;20494;-82
2022/01/15 03:21:41;;;;;;;1081.33;880.23;;;2.20;99.90;;;;;;5005417;28;20579;-82
2022/01/15 03:24:12;;;;;;;1093.90;882.90;;;2.10;99.90;;;;;;5008346;28;20457;-82
2022/01/15 03:26:42;;;;;;;1099.70;888.17;;;2.10;99.90;;;;;;5011168;28;20446;-82
2022/01/15 03:29:15;;;;;;;1189.67;898.70;;;2.10;99.90;;;;;;5010122;28;20474;-82
2022/01/15 03:31:43;;;;;;;1068.40;884.87;;;2.20;99.90;;;;;;5010974;28;20458;-83
2022/01/15 03:34:11;;;;;;;1112.70;883.13;;;2.10;99.90;;;;;;5011329;28;20466;-82
2022/01/15 03:36:45;;;;;;;1098.60;882.93;;;2.20;99.90;;;;;;5010886;28;20446;-83
2022/01/15 03:39:15;;;;;;;1135.97;884.00;;;2.20;99.90;;;;;;5010541;28;20489;-82
2022/01/15 03:41:54;;;;;;;1139.03;888.80;;;2.20;99.90;;;;;;5010029;28;20458;-82
2022/01/15 03:44:25;;;;;;;1146.57;901.73;;;2.10;99.90;;;;;;5010244;28;20452;-81
2022/01/15 03:46:58;;;;;;;1152.60;905.67;;;2.10;99.90;;;;;;5010850;28;20477;-82
2022/01/15 03:49:28;;;;;;;1168.00;897.37;;;2.10;99.90;;;;;;4995835;28;20477;-83
2022/01/15 03:51:57;;;;;;;1153.00;907.03;;;2.10;99.90;;;;;;4998085;28;20458;-83
2022/01/15 03:54:45;;;;;;;1210.03;911.47;;;2.10;99.90;;;;;;4996641;28;20478;-82
2022/01/15 03:57:18;;;;;;;1164.73;899.53;;;2.10;99.90;;;;;;4995948;28;20458;-82
2022/01/15 03:59:45;;;;;;;1175.80;903.50;;;2.10;99.90;;;;;;4996516;28;20557;-82
2022/01/15 04:02:25;;;;;;;1097.37;922.90;;;2.10;99.90;;;;;;4997938;28;20458;-84
2022/01/15 04:04:54;;;;;;;1134.27;920.47;;;2.00;99.90;;;;;;5009670;28;20465;-82
2022/01/15 04:07:23;;;;;;;1143.47;923.00;;;2.10;99.90;;;;;;5011325;28;20502;-82
2022/01/15 04:09:57;;;;;;;1107.07;913.73;;;2.10;99.90;;;;;;5010148;28;20486;-82
2022/01/15 04:15:32;;;;;;;1173.17;922.27;;;2.00;99.90;;;;;;4997145;28;20946;-82
2022/01/15 04:17:59;;;;;;;1153.47;922.47;;;2.10;99.90;;;;;;4997912;28;20626;-82
2022/01/15 04:20:39;;;;;;;1108.70;923.63;;;1.90;99.90;;;;;;4995481;28;20520;-83
2022/01/15 04:23:12;;;;;;;1074.73;911.23;;;1.90;99.90;;;;;;4996099;28;20541;-82
2022/01/15 04:25:50;;;;;;;1104.27;927.40;;;2.10;99.90;;;;;;4998128;28;20496;-82
2022/01/15 04:28:25;;;;;;;1064.07;916.30;;;2.10;99.90;;;;;;4997105;28;20564;-83
2022/01/15 04:31:04;;;;;;;1028.80;915.63;;;2.00;99.90;;;;;;4995611;28;21018;-82
2022/01/15 04:33:33;;;;;;;1032.27;918.20;;;2.00;99.90;;;;;;4997071;28;20509;-83
2022/01/15 04:36:08;;;;;;;1073.17;911.37;;;1.90;99.90;;;;;;5007075;28;20616;-82
2022/01/15 04:38:45;;;;;;;1055.70;924.70;;;2.00;99.90;;;;;;5008652;28;20547;-82
2022/01/15 04:41:16;;;;;;;1054.17;919.07;;;2.00;99.90;;;;;;5005681;28;20485;-83
2022/01/15 04:43:45;;;;;;;1095.97;913.13;;;2.00;99.90;;;;;;5008909;28;20480;-83
2022/01/15 04:46:16;;;;;;;1088.73;921.63;;;2.00;99.90;;;;;;5008081;28;20462;-82
2022/01/15 04:48:55;;;;;;;1067.07;917.53;;;1.90;99.90;;;;;;5001253;28;20482;-82
2022/01/15 04:51:26;;;;;;;1088.83;919.73;;;2.00;99.90;;;;;;5003582;28;20462;-81
2022/01/15 04:54:00;;;;;;;1213.83;923.20;;;2.00;99.90;;;;;;5001060;28;20451;-82
2022/01/15 04:56:37;;;;;;;1102.83;921.00;;;2.10;99.90;;;;;;4999916;28;20537;-82
2022/01/15 04:59:15;;;;;;;1105.47;919.73;;;2.00;99.90;;;;;;4999907;28;20474;-83
2022/01/15 05:01:45;;;;;;;1077.60;921.87;;;2.10;99.90;;;;;;5005602;28;20484;-82
2022/01/15 05:04:19;;;;;;;1128.87;918.60;;;2.10;99.90;;;;;;5002368;28;20469;-81
2022/01/15 05:06:49;;;;;;;1058.10;907.07;;;2.10;99.90;;;;;;5005712;28;20443;-82
2022/01/15 05:09:19;;;;;;;1157.53;920.17;;;2.10;99.90;;;;;;5009263;28;20474;-82
2022/01/15 05:12:00;;;;;;;1101.60;926.77;;;2.10;99.90;;;;;;5005112;28;20446;-82
2022/01/15 05:14:30;;;;;;;1078.03;918.80;;;2.00;99.90;;;;;;5007990;28;20810;-82
2022/01/15 05:16:58;;;;;;;1070.90;929.80;;;2.00;99.90;;;;;;5007461;28;20458;-83
2022/01/15 05:19:27;;;;;;;1058.60;919.50;;;2.00;99.90;;;;;;5007085;28;20497;-82
2022/01/15 05:22:02;;;;;;;1067.70;920.93;;;2.10;99.90;;;;;;5008052;28;20520;-82
2022/01/15 05:24:45;;;;;;;1071.33;913.53;;;2.10;99.90;;;;;;5007899;28;21091;-82
2022/01/15 05:27:27;;;;;;;1056.67;916.23;;;2.00;99.90;;;;;;5006649;28;20446;-81
2022/01/15 05:29:54;;;;;;;1061.27;922.17;;;2.00;99.90;;;;;;5006658;28;20469;-81
2022/01/15 05:32:29;;;;;;;1048.87;931.60;;;2.00;99.90;;;;;;4996804;28;20454;-82
2022/01/15 05:35:07;;;;;;;1068.63;922.93;;;2.10;99.90;;;;;;4994302;28;20473;-82
2022/01/15 05:37:50;;;;;;;1058.97;925.33;;;2.10;99.90;;;;;;5003010;28;20554;-83
2022/01/15 05:40:19;;;;;;;1060.23;924.13;;;2.10;99.90;;;;;;5007752;28;20494;-82
2022/01/15 05:43:18;;;;;;;1074.93;922.50;;;2.00;99.90;;;;;;5007023;28;20458;-82
2022/01/15 05:45:48;;;;;;;1078.23;920.93;;;2.00;99.90;;;;;;5005570;28;20517;-81
2022/01/15 05:48:24;;;;;;;1063.27;912.37;;;2.20;99.90;;;;;;5003129;28;20501;-83
2022/01/15 05:50:51;;;;;;;1095.47;919.27;;;2.10;99.90;;;;;;5008132;28;20483;-82
2022/01/15 05:53:24;;;;;;;1042.50;922.40;;;2.10;99.90;;;;;;5009118;28;20472;-82
2022/01/15 05:56:00;;;;;;;1047.67;922.27;;;2.10;99.90;;;;;;5009601;28;20469;-82
2022/01/15 05:58:28;;;;;;;1058.73;918.90;;;2.10;99.90;;;;;;5005444;28;20508;-82
2022/01/15 06:00:59;;;;;;;1061.57;923.97;;;2.10;99.90;;;;;;5005087;28;20450;-82
2022/01/15 06:03:26;;;;;;;1059.87;919.63;;;2.00;99.90;;;;;;5008914;28;20454;-82
2022/01/15 06:05:55;;;;;;;1043.57;928.50;;;2.10;99.90;;;;;;5007370;28;20517;-81
2022/01/15 06:08:25;;;;;;;1031.80;912.07;;;2.00;99.90;;;;;;5006551;28;20498;-82
2022/01/15 06:10:55;;;;;;;1046.93;921.50;;;2.00;99.90;;;;;;5007242;28;20513;-82
2022/01/15 06:13:30;;;;;;;1059.23;908.43;;;1.90;99.90;;;;;;5008191;28;20450;-81
2022/01/15 06:15:59;;;;;;;1017.67;904.97;;;1.90;99.90;;;;;;5006205;28;20438;-82
2022/01/15 06:18:26;;;;;;;1034.73;900.30;;;1.90;99.90;;;;;;5005444;28;20470;-82
2022/01/15 06:20:55;;;;;;;1019.30;910.07;;;1.90;99.90;;;;;;5006113;28;20450;-82
2022/01/15 06:23:25;;;;;;;1031.63;919.43;;;1.80;99.90;;;;;;5007144;28;20477;-82
2022/01/15 06:25:59;;;;;;;1032.27;919.90;;;1.80;99.90;;;;;;5008051;28;20456;-82
2022/01/15 06:28:31;;;;;;;1029.60;917.80;;;1.80;99.90;;;;;;5008115;28;20480;-81
2022/01/15 06:31:00;;;;;;;1015.13;904.63;;;1.80;99.90;;;;;;5010451;28;20501;-81
2022/01/15 06:33:36;;;;;;;1014.47;905.87;;;1.80;99.90;;;;;;5010877;28;20533;-82
2022/01/15 06:36:06;;;;;;;1005.30;895.90;;;1.70;99.90;;;;;;5011179;28;20474;-81
2022/01/15 06:38:36;;;;;;;1008.43;900.77;;;1.80;99.90;;;;;;5011251;28;20473;-81
2022/01/15 06:41:12;;;;;;;1011.03;901.90;;;1.70;99.90;;;;;;5011623;28;20457;-81
2022/01/15 06:43:44;;;;;;;1002.80;897.63;;;1.60;99.90;;;;;;5012290;28;20458;-82
2022/01/15 06:46:25;;;;;;;994.53;887.70;;;1.70;99.90;;;;;;5012369;28;20450;-81
2022/01/15 06:49:15;;;;;;;982.23;874.50;;;1.80;99.90;;;;;;5012669;28;20946;-82
2022/01/15 06:51:52;;;;;;;984.20;879.27;;;1.70;99.90;;;;;;5012004;28;20461;-82
2022/01/15 06:54:19;;;;;;;985.23;880.13;;;1.70;99.90;;;;;;5011094;28;20450;-82
2022/01/15 06:56:55;;;;;;;983.37;878.13;;;1.70;99.90;;;;;;5010791;28;20486;-81
2022/01/15 06:59:32;;;;;;;984.20;879.40;;;1.70;99.90;;;;;;5009471;28;20477;-81
2022/01/15 07:02:20;;;;;;;985.27;879.87;;;1.70;99.90;;;;;;5007431;28;20453;-82
2022/01/15 07:05:05;;;;;;;965.77;859.90;;;1.70;99.90;;;;;;5008959;28;20458;-82
2022/01/15 07:07:45;;;;;;;954.47;851.27;;;1.70;99.90;;;;;;5005471;28;20480;-82
2022/01/15 07:10:20;;;;;;;948.87;846.23;;;1.70;99.90;;;;;;5003694;28;20568;-82
2022/01/15 07:12:50;;;;;;;953.90;852.00;;;1.80;99.90;;;;;;5006439;28;20446;-82
2022/01/15 07:15:18;;;;;;;949.30;845.90;;;1.70;99.90;;;;;;5008212;28;20450;-82
2022/01/15 07:17:52;;;;;;;936.80;837.43;;;1.70;99.90;;;;;;5007058;28;20557;-82
2022/01/15 07:20:22;;;;;;;926.03;824.47;;;1.80;99.90;;;;;;5007387;28;21004;-81
2022/01/15 07:22:57;;;;;;;915.83;815.53;;;1.80;99.90;;;;;;5007528;28;20457;-82
2022/01/15 07:25:45;;;;;;;903.80;806.90;;;1.70;99.90;;;;;;5008093;28;20458;-82
2022/01/15 07:28:37;;;;;;;900.37;800.43;;;1.80;99.90;;;;;;5008374;28;20489;-82
2022/01/15 07:31:29;;;;;;;910.73;810.93;;;1.70;99.90;;;;;;5008828;28;20477;-82
2022/01/15 07:37:02;;;;;;;892.23;790.80;;;1.80;99.90;;;;;;5004995;28;20454;-80
2022/01/15 07:39:59;;;;;;;877.93;778.07;;;1.80;99.90;;;;;;4985186;28;20493;-82
2022/01/15 07:42:50;;;;;;;868.20;763.43;;;1.90;99.90;;;;;;5005604;28;20454;-82
2022/01/15 07:48:04;;;;;;;864.80;735.67;;;1.90;99.90;;;;;;5003315;28;20545;-82
2022/01/15 07:50:33;;;;;;;855.47;744.37;;;1.90;99.90;;;;;;5002489;28;21005;-81
2022/01/15 07:56:07;;;;;;;851.57;725.93;;;1.90;99.90;;;;;;4998803;28;20513;-81
2022/01/15 07:58:43;;;;;;;833.03;733.83;;;2.00;99.90;;;;;;5003666;28;20501;-82
2022/01/15 08:01:29;;;;;;;825.33;716.37;;;2.00;99.90;;;;;;5006011;28;20449;-81
2022/01/15 08:04:10;;;;;;;825.80;729.53;;;2.00;99.90;;;;;;5007545;28;20474;-81
2022/01/15 08:06:55;;;;;;;840.37;724.73;;;1.90;99.90;;;;;;5008868;28;20454;-81
2022/01/15 08:09:46;;;;;;;;;;;;;;;;;;;;;
2022/01/15 08:12:23;;;;;;;811.30;715.30;;;2.00;99.90;;;;;;5028114;28;20476;-82
2022/01/15 08:14:50;;;;;;;814.03;710.23;;;2.20;99.90;;;;;;5029158;28;20484;-82
2022/01/15 08:17:37;;;;;;;819.90;710.27;;;2.10;99.90;;;;;;5029301;28;20454;-82
2022/01/15 08:20:14;;;;;;;807.07;706.37;;;2.20;99.90;;;;;;5000362;28;20442;-81
2022/01/15 08:22:52;;;;;;;810.90;704.33;;;2.20;99.90;;;;;;5010626;28;20442;-81
2022/01/15 08:25:22;;;;;;;802.73;710.27;;;2.20;99.90;;;;;;5011005;28;20469;-81
2022/01/15 08:33:42;;;;;;;797.43;709.33;;;2.30;99.90;;;;;;5005005;28;20494;-82
2022/01/15 08:36:39;;;;;;;800.33;713.57;;;2.30;99.90;;;;;;5005511;28;20820;-81
2022/01/15 08:39:07;;;;;;;783.30;697.47;;;2.40;99.90;;;;;;4988313;28;20554;-81
2022/01/15 08:41:50;;;;;;;777.30;690.90;;;2.40;99.90;;;;;;4989797;28;20455;-82
2022/01/15 08:44:24;;;;;;;773.90;688.83;;;2.40;99.90;;;;;;4988424;28;20454;-81
2022/01/15 08:47:13;;;;;;;764.43;677.40;;;2.50;99.90;;;;;;4987774;28;20463;-81
2022/01/15 08:52:29;;;;;;;778.50;693.53;;;2.50;99.90;;;;;;4985473;28;20490;-82
2022/01/15 08:58:25;;;;;;;776.47;693.40;;;2.60;99.90;;;;;;4986282;28;20459;-82
2022/01/15 09:00:54;;;;;;;773.87;690.87;;;2.70;99.90;;;;;;4987961;28;20955;-81
2022/01/15 09:03:33;;;;;;;773.67;691.37;;;2.70;99.90;;;;;;4988467;28;20447;-82
2022/01/15 09:06:07;;;;;;;776.17;692.80;;;2.70;99.90;;;;;;4985487;28;20489;-81
2022/01/15 09:08:54;;;;;;;766.47;684.43;;;2.80;99.90;;;;;;4985362;28;20479;-79
2022/01/15 09:12:00;;;;;;;768.43;688.00;;;2.90;99.90;;;;;;4981492;28;20531;-82
2022/01/15 09:18:35;;;;;;;767.20;687.27;;;2.90;99.90;;;;;;4915197;29;20860;-84
2022/01/15 09:21:49;;;;;;;768.60;689.93;;;2.90;99.90;;;;;;4883656;29;20565;-82
2022/01/15 09:32:12;;;;;;;765.77;689.73;;;3.00;99.90;;;;;;4977852;28;20486;-82
2022/01/15 09:35:00;;;;;;;768.60;691.50;;;3.00;99.90;;;;;;4978650;28;20463;-82
2022/01/15 09:41:09;;;;;;;771.23;693.63;;;3.10;99.90;;;;;;4970770;28;20459;-82
2022/01/15 10:21:15;;;;;;;750.67;689.10;;;3.60;99.90;;;;;;4867595;29;20461;-84
2022/01/15 10:23:52;;;;;;;752.00;691.30;;;3.70;99.90;;;;;;4918369;29;20450;-82
2022/01/15 10:26:26;;;;;;;747.67;690.13;;;3.70;99.90;;;;;;4975272;28;20458;-82
2022/01/15 10:31:44;;;;;;;752.20;697.23;;;3.70;99.90;;;;;;4977538;28;20551;-82
2022/01/15 10:35:08;;;;;;;763.53;708.13;;;3.70;99.90;;;;;;4980016;28;20459;-82
2022/01/15 10:38:08;;;;;;;760.87;705.37;;;3.70;99.90;;;;;;4979450;28;20459;-82
2022/01/15 10:43:59;;;;;;;750.40;696.10;;;3.90;99.90;;;;;;4975759;28;20859;-82
2022/01/15 10:57:09;;;;;;;765.90;710.30;;;4.10;99.90;;;;;;4974336;28;20975;-83
2022/01/15 11:00:12;;;;;;;767.20;712.80;;;4.10;99.90;;;;;;4977121;28;20862;-83
2022/01/15 11:02:49;;;;;;;771.73;723.40;;;4.10;99.90;;;;;;4963977;28;20546;-82
2022/01/15 11:06:22;;;;;;;;;;;;;;;;;;;;;
2022/01/15 11:09:32;;;;;;;762.50;718.07;;;4.20;99.90;;;;;;4953758;28;21006;-83
2022/01/15 11:12:08;;;;;;;773.40;726.37;;;4.40;99.90;;;;;;4975782;28;20481;-83
2022/01/15 11:14:46;;;;;;;772.00;726.47;;;4.50;99.90;;;;;;4979786;28;20446;-83
2022/01/15 11:17:33;;;;;;;726.37;689.07;;;4.60;99.90;;;;;;4981931;28;20505;-82
2022/01/15 11:20:48;;;;;;;712.80;677.50;;;4.60;99.90;;;;;;4980673;28;20948;-83
2022/01/15 11:26:37;;;;;;;696.57;664.47;;;4.70;99.90;;;;;;4973132;28;20554;-82
2022/01/15 11:29:10;;;;;;;654.80;626.00;;;4.60;99.90;;;;;;4979581;28;20861;-81
2022/01/15 11:31:56;;;;;;;665.83;635.97;;;4.60;99.90;;;;;;4979892;28;20541;-82
2022/01/15 11:34:48;;;;;;;657.00;628.33;;;4.60;99.90;;;;;;4979827;28;20466;-82
2022/01/15 11:37:31;;;;;;;648.63;620.33;;;4.50;99.90;;;;;;4980375;28;20463;-82
2022/01/15 11:40:53;;;;;;;;;;;;;;;;;;;;;
2022/01/15 11:43:45;;;;;;;710.43;676.63;;;4.40;99.90;;;;;;4931970;28;20463;-82
2022/01/15 11:46:34;;;;;;;721.73;687.87;;;4.40;99.90;;;;;;4979273;28;20454;-82
2022/01/15 11:52:49;;;;;;;650.97;622.27;;;4.30;99.90;;;;;;4919729;29;20485;-82
2022/01/15 12:02:05;;;;;;;;;;;;;;;;;;;;;
2022/01/15 12:05:13;;;;;;;;;;;;;;;;;;;;;
2022/01/15 12:12:02;;;;;;;672.93;642.90;;;4.30;99.90;;;;;;4974754;28;20856;-82
2022/01/15 12:18:10;;;;;;;687.00;656.53;;;4.30;99.90;;;;;;4978810;28;20932;-82
2022/01/15 12:21:00;;;;;;;712.07;679.37;;;4.40;99.90;;;;;;4979192;28;20451;-82
2022/01/15 12:26:53;;;;;;;720.13;686.90;;;4.50;99.90;;;;;;4975858;28;20487;-83
2022/01/15 12:29:59;;;;;;;702.50;671.20;;;4.60;99.90;;;;;;4937064;28;20474;-82
2022/01/15 12:33:16;;;;;;;694.23;663.43;;;4.50;99.90;;;;;;4983007;28;20474;-84
2022/01/15 12:38:48;;;;;;;647.13;619.73;;;4.70;99.90;;;;;;4935538;29;20477;-82
2022/01/15 12:47:30;;;;;;;690.57;660.57;;;4.80;99.90;;;;;;4995217;28;20451;-82
2022/01/15 12:57:03;;;;;;;532.43;511.77;;;5.00;99.90;;;;;;4995208;28;20474;-82
2022/01/15 13:09:49;;;;;;;425.43;410.03;;;4.70;99.90;;;;;;4995803;28;20474;-84
2022/01/15 13:19:47;;;;;;;608.83;584.63;;;4.40;99.90;;;;;;4941342;28;20513;-83
2022/01/15 13:22:55;;;;;;;675.20;646.53;;;4.50;99.90;;;;;;4997939;28;20542;-83
2022/01/15 13:35:47;;;;;;;733.90;699.23;;;4.70;99.90;;;;;;4977877;28;21045;-83
2022/01/15 13:38:49;;;;;;;686.33;657.13;;;4.80;99.90;;;;;;4998128;28;20478;-83
2022/01/15 13:41:47;;;;;;;664.30;636.67;;;4.70;99.90;;;;;;4997793;28;20966;-83
2022/01/15 13:44:43;;;;;;;689.73;660.23;;;4.70;99.90;;;;;;4998309;28;20458;-82
2022/01/15 13:48:03;;;;;;;696.47;666.67;;;4.80;99.90;;;;;;4998382;28;20513;-83
2022/01/15 14:01:07;;;;;;;;;;;;;;;;;;;;;
2022/01/15 14:10:28;;;;;;;800.33;757.43;;;4.40;99.90;;;;;;4904538;29;20484;-83
2022/01/15 14:13:25;;;;;;;790.22;743.72;;;4.30;99.90;;;;;;4988365;28;20454;-82
2022/01/15 14:16:20;;;;;;;794.50;748.50;;;4.10;99.90;;;;;;4979759;28;20196;-83
2022/01/15 14:21:53;;;;;;;799.63;751.80;;;4.20;99.90;;;;;;4989425;28;20475;-83
2022/01/15 14:27:52;;;;;;;800.33;753.30;;;4.20;99.90;;;;;;4975492;28;20470;-82
2022/01/15 14:31:03;;;;;;;809.97;760.90;;;4.00;99.90;;;;;;4983935;28;20473;-83
2022/01/15 14:37:07;;;;;;;802.77;753.97;;;3.90;99.90;;;;;;4966849;28;20439;-83
2022/01/15 15:05:26;;;;;;;805.90;749.83;;;3.70;99.90;;;;;;4924089;28;20462;-85
2022/01/15 15:13:52;;;;;;;796.87;737.97;;;3.70;99.90;;;;;;4868598;29;20433;-81
2022/01/15 15:17:13;;;;;;;;;;;;;;;;;;;;;
2022/01/15 15:49:06;;;;;;;802.77;738.43;;;3.50;99.90;;;;;;4925732;29;20487;-83
2022/01/15 15:55:15;;;;;;;787.60;721.83;;;3.50;99.90;;;;;;4963502;28;20449;-83
2022/01/15 15:58:16;;;;;;;780.53;714.27;;;3.40;99.90;;;;;;4989471;28;20453;-83
2022/01/15 16:01:20;;;;;;;788.10;722.23;;;3.30;99.90;;;;;;5003081;28;20453;-83
2022/01/15 16:04:18;;;;;;;790.40;723.73;;;3.30;99.90;;;;;;4972394;28;20495;-83
2022/01/15 16:13:08;;;;;;;782.20;714.37;;;3.30;99.90;;;;;;4946463;29;20483;-83
2022/01/15 16:16:18;;;;;;;781.33;713.73;;;3.30;99.90;;;;;;4980696;28;21015;-82
2022/01/15 16:25:41;;;;;;;775.03;707.03;;;3.20;99.90;;;;;;4978689;28;20447;-82
2022/01/15 16:28:47;;;;;;;776.37;708.00;;;3.20;99.90;;;;;;4985591;28;20843;-83
2022/01/15 16:31:56;;;;;;;780.07;711.40;;;3.20;99.90;;;;;;4905190;29;20486;-83
2022/01/15 16:34:52;;;;;;;780.37;711.20;;;3.30;99.90;;;;;;4891705;29;20510;-83
2022/01/15 16:37:56;;;;;;;;;;;;;;;;;;;;;
2022/01/15 16:50:36;;;;;;;778.10;709.70;;;3.20;99.90;;;;;;4910416;29;20513;-83
2022/01/15 16:54:00;;;;;;;774.47;705.83;;;3.10;99.90;;;;;;4921199;28;20490;-82
2022/01/15 17:00:33;;;;;;;783.03;714.07;;;3.30;99.90;;;;;;4907718;28;20576;-82
2022/01/15 17:03:41;;;;;;;;;;;;;;;;;;;;;
2022/01/15 17:06:48;;;;;;;771.30;701.60;;;3.10;99.90;;;;;;4916563;29;20497;-84
2022/01/15 17:34:40;;;;;;;;;;;;;;;;;;;;;
2022/01/15 17:37:41;;;;;;;786.90;713.63;;;3.10;99.90;;;;;;4954641;28;21001;-84
2022/01/15 17:47:37;;;;;;;790.43;718.03;;;3.10;99.90;;;;;;4956939;28;20447;-84
2022/01/15 17:50:42;;;;;;;783.13;709.90;;;3.10;99.90;;;;;;4977023;28;20454;-84
2022/01/15 17:56:36;;;;;;;784.73;712.30;;;3.10;99.90;;;;;;4967828;28;20453;-83
2022/01/15 18:02:26;;;;;;;802.30;729.07;;;3.10;99.90;;;;;;4931739;28;20454;-84
2022/01/15 18:04:53;;;;;;;813.77;740.47;;;3.00;99.90;;;;;;4981584;28;20447;-83
2022/01/15 18:07:20;;;;;;;809.80;735.97;;;3.20;99.90;;;;;;4981566;28;20546;-84
2022/01/15 18:09:50;;;;;;;811.70;738.87;;;3.10;99.90;;;;;;4981567;28;20480;-83
2022/01/15 18:12:16;;;;;;;802.97;731.20;;;3.10;99.90;;;;;;4981827;28;20475;-83
2022/01/15 18:14:49;;;;;;;796.47;725.20;;;3.10;99.90;;;;;;4981697;28;20458;-84
2022/01/15 18:17:16;;;;;;;795.20;723.13;;;3.10;99.90;;;;;;4981810;28;20528;-84
2022/01/15 18:19:47;;;;;;;784.27;713.33;;;3.10;99.90;;;;;;4981405;28;20474;-83
2022/01/15 18:22:14;;;;;;;795.20;723.30;;;3.10;99.90;;;;;;4982087;28;20462;-84
2022/01/15 18:24:59;;;;;;;794.20;722.50;;;3.10;99.90;;;;;;4983024;28;20455;-83
2022/01/15 18:27:30;;;;;;;798.77;726.90;;;3.10;99.90;;;;;;4985720;28;20462;-84
2022/01/15 18:30:04;;;;;;;809.97;738.40;;;3.10;99.90;;;;;;4984984;28;20463;-83
2022/01/15 18:32:30;;;;;;;803.57;731.93;;;3.10;99.90;;;;;;4987172;28;20474;-83
2022/01/15 18:35:00;;;;;;;806.67;736.17;;;3.10;99.90;;;;;;4984982;28;20521;-83
2022/01/15 18:37:29;;;;;;;806.57;734.43;;;3.10;99.90;;;;;;4991974;28;20454;-84
2022/01/15 18:39:56;;;;;;;802.87;731.37;;;3.00;99.90;;;;;;4997968;28;20462;-83
2022/01/15 18:42:23;;;;;;;803.17;731.77;;;3.10;99.90;;;;;;4984338;28;20446;-83
2022/01/15 18:44:54;;;;;;;815.60;744.17;;;3.00;99.90;;;;;;4983575;28;20458;-84
2022/01/15 18:47:23;;;;;;;808.37;738.47;;;3.10;99.90;;;;;;4984179;28;20542;-83
2022/01/15 18:50:09;;;;;;;815.10;744.40;;;3.00;99.90;;;;;;4984715;28;20498;-83
2022/01/15 18:52:36;;;;;;;826.40;755.23;;;3.10;99.90;;;;;;4994075;28;20860;-84
2022/01/15 18:55:09;;;;;;;820.80;750.10;;;3.00;99.90;;;;;;5004720;28;20461;-83